Troy, Michigan
Current Conditions -  °F | °C
As of 11:15 AM on Thursday 27 Nov 2014 (Local Time) from KVLL Reporting Station
Overcast Overcast  
Wind Chill: 24°   Ceiling: 2300
Heat Index: 33°   Visibility: 10mi
Dew Point: 23°   Wind: 13mph
Humidity: 66%   Direction: 270°W
Pressure: 30.16"   Gusts: 17mph
Location:  42.56°N, 83.15°W
Report Text: KVLL 271615Z AUTO 27011G15KT 10SM BKN023 OVC029 01/M05 A3016 RMK AO2 T00071050
Loading
Personal Weather Stations






























Interactive Weather Map New forecast layout! Learn more

10-Day Weather Forecast

Advertisements
Track Severe Weather on mobile